^^
Station Historical Data
Daily Summary for April 17, 2017 Units:  English    Metric   Both
« Previous Day
Next Day »
Daily Weekly Monthly Yearly Custom
  High: Low: Average:
Temperature: 72.1 °F 57.0 °F 64.3 °F
Dew Point: 59.8 °F 33.7 °F 45.7 °F
Humidity: 91 % 25 % 56 %
Wind Speed: 12.4 mph 0.0 mph 3 mph
Wind Gust: 18.4 mph - -
Wind:- - WSW
Pressure: 30.18 in 29.88 in -
Precipitation: 0.00 in    
Historical Graphs
 
 
Tabular Data for April 17, 2017
Time Temperature Dew Point Pressure Wind Wind Speed Wind Gust Humidity Rainfall Rate (Hourly) solar Conditions
00:00 63.4 °F 59.8 °F 29.91 in WSW 4.4 mph 6.9 mph 88 % 0.00 in 0.0 W/m2 CLR
00:05 63.4 °F 59.8 °F 29.91 in SW 1.3 mph 3.5 mph 88 % 0.00 in 0.0 W/m2 RA
00:10 63.4 °F 59.8 °F 29.91 in WSW 0.8 mph 3.5 mph 88 % 0.00 in 0.0 W/m2 CLR
00:15 63.4 °F 59.8 °F 29.91 in WSW 2.1 mph 6.9 mph 88 % 0.00 in 0.0 W/m2 CLR
00:20 63.3 °F 59.7 °F 29.91 in WSW 3.3 mph 6.9 mph 88 % 0.00 in 0.0 W/m2 CLR
00:25 63.2 °F 59.6 °F 29.91 in WSW 2.8 mph 9.2 mph 88 % 0.00 in 0.0 W/m2 CLR
00:30 63.1 °F 59.5 °F 29.91 in Calm     88 % 0.00 in 0.0 W/m2 CLR
00:35 63.0 °F 59.4 °F 29.91 in WSW 1.2 mph 3.5 mph 88 % 0.00 in 0.0 W/m2 CLR
00:40 62.9 °F 59.3 °F 29.91 in West 1.6 mph 5.8 mph 88 % 0.00 in 0.0 W/m2 CLR
00:45 62.8 °F 59.2 °F 29.91 in West 1.8 mph 6.9 mph 88 % 0.00 in 0.0 W/m2 CLR
00:50 62.8 °F 59.2 °F 29.91 in WSW 1.7 mph 7.0 mph 88 % 0.00 in 0.0 W/m2 CLR
00:55 62.7 °F 59.1 °F 29.91 in West 1.8 mph 3.5 mph 88 % 0.00 in 0.0 W/m2 CLR
01:00 62.5 °F 58.9 °F 29.91 in SW 0.9 mph 3.5 mph 88 % 0.00 in 0.0 W/m2 CLR
01:05 62.4 °F 58.8 °F 29.91 in West 1.0 mph 3.5 mph 88 % 0.00 in 0.0 W/m2 CLR
01:10 62.4 °F 59.1 °F 29.91 in Calm     89 % 0.00 in 0.0 W/m2 CLR
01:15 62.3 °F 59.0 °F 29.91 in WSW 0.8 mph 3.5 mph 89 % 0.00 in 0.0 W/m2 CLR
01:20 62.1 °F 58.8 °F 29.90 in Calm   1.0 mph 89 % 0.00 in 0.0 W/m2 CLR
01:25 62.0 °F 58.7 °F 29.90 in Calm     89 % 0.00 in 0.0 W/m2 CLR
01:30 61.9 °F 58.6 °F 29.90 in Calm     89 % 0.00 in 0.0 W/m2 CLR
01:35 61.8 °F 58.5 °F 29.91 in Calm     89 % 0.00 in 0.0 W/m2 CLR
01:40 61.7 °F 58.4 °F 29.90 in West 0.1 mph 1.0 mph 89 % 0.00 in 0.0 W/m2 CLR
01:45 61.6 °F 58.3 °F 29.90 in Calm     89 % 0.00 in 0.0 W/m2 CLR
01:50 61.5 °F 58.2 °F 29.90 in Calm   1.2 mph 89 % 0.00 in 0.0 W/m2 CLR
01:55 61.4 °F 58.1 °F 29.90 in Calm     89 % 0.00 in 0.0 W/m2 CLR
02:00 61.2 °F 57.9 °F 29.90 in West 2.8 mph 5.8 mph 89 % 0.00 in 0.0 W/m2 CLR
02:05 61.2 °F 57.9 °F 29.90 in Calm   3.5 mph 89 % 0.00 in 0.0 W/m2 CLR
02:10 61.2 °F 58.2 °F 29.90 in WSW 0.1 mph 2.3 mph 90 % 0.00 in 0.0 W/m2 CLR
02:15 61.1 °F 58.1 °F 29.90 in WSW 0.1 mph 1.2 mph 90 % 0.00 in 0.0 W/m2 CLR
02:20 61.1 °F 58.1 °F 29.89 in Calm   1.2 mph 90 % 0.00 in 0.0 W/m2 CLR
02:25 61.0 °F 58.0 °F 29.89 in Calm   2.3 mph 90 % 0.00 in 0.0 W/m2 CLR
02:30 60.9 °F 57.9 °F 29.89 in WSW 0.5 mph 3.5 mph 90 % 0.00 in 0.0 W/m2 CLR
02:35 60.8 °F 57.8 °F 29.89 in Calm     90 % 0.00 in 0.0 W/m2 CLR
02:40 60.6 °F 57.7 °F 29.89 in WSW 0.1 mph 1.2 mph 90 % 0.00 in 0.0 W/m2 CLR
02:43 60.6 °F 57.7 °F 29.89 in WSW 0.1 mph 1.2 mph 90 % 0.00 in 0.0 W/m2 CLR
02:48 60.6 °F 57.7 °F 29.89 in SW 0.2 mph 1.2 mph 90 % 0.00 in 0.0 W/m2 CLR
02:53 60.6 °F 57.7 °F 29.89 in Calm     90 % 0.00 in 0.0 W/m2 CLR
02:58 60.5 °F 57.6 °F 29.88 in SW 0.4 mph 3.5 mph 90 % 0.00 in 0.0 W/m2 CLR
03:03 60.5 °F 57.6 °F 29.89 in SW 0.6 mph 3.5 mph 90 % 0.00 in 0.0 W/m2 CLR
03:08 60.5 °F 57.6 °F 29.89 in Calm     90 % 0.00 in 0.0 W/m2 CLR
03:13 60.5 °F 57.6 °F 29.88 in Calm     90 % 0.00 in 0.0 W/m2 CLR
03:18 60.5 °F 57.6 °F 29.89 in Calm   2.3 mph 90 % 0.00 in 0.0 W/m2 CLR
03:23 60.5 °F 57.9 °F 29.89 in Calm     91 % 0.00 in 0.0 W/m2 CLR
03:28 60.5 °F 57.9 °F 29.89 in Calm     91 % 0.00 in 0.0 W/m2 CLR
03:33 60.6 °F 58.0 °F 29.89 in SW 0.2 mph 2.0 mph 91 % 0.00 in 0.0 W/m2 CLR
03:38 60.7 °F 58.1 °F 29.89 in WSW 0.1 mph 2.3 mph 91 % 0.00 in 0.0 W/m2 CLR
03:43 60.8 °F 57.8 °F 29.89 in WSW 0.9 mph 4.0 mph 90 % 0.00 in 0.0 W/m2 CLR
03:48 60.9 °F 57.9 °F 29.89 in WSW 1.2 mph 3.5 mph 90 % 0.00 in 0.0 W/m2 CLR
03:53 61.0 °F 58.0 °F 29.89 in SW 0.9 mph 3.5 mph 90 % 0.00 in 0.0 W/m2 CLR
03:58 61.1 °F 58.1 °F 29.89 in SW 0.3 mph 3.5 mph 90 % 0.00 in 0.0 W/m2 CLR
04:03 61.1 °F 58.1 °F 29.89 in SSW 1.4 mph   90 % 0.00 in 0.0 W/m2 CLR
04:08 61.2 °F 57.9 °F 29.89 in SW 0.1 mph   89 % 0.00 in 0.0 W/m2 CLR
04:13 61.1 °F 57.8 °F 29.90 in WSW 2.4 mph 3.5 mph 89 % 0.00 in 0.0 W/m2 CLR
04:18 61.2 °F 57.9 °F 29.89 in WSW 1.7 mph 6.9 mph 89 % 0.00 in 0.0 W/m2 CLR
04:23 61.2 °F 57.9 °F 29.89 in SW 3.1 mph 5.8 mph 89 % 0.00 in 0.0 W/m2 CLR
04:28 61.2 °F 57.9 °F 29.90 in WSW 1.5 mph 4.6 mph 89 % 0.00 in 0.0 W/m2 CLR
04:33 61.2 °F 57.9 °F 29.90 in Calm   5.8 mph 89 % 0.00 in 0.0 W/m2 CLR
04:38 61.3 °F 58.0 °F 29.90 in WSW 1.3 mph 3.5 mph 89 % 0.00 in 0.0 W/m2 CLR
04:48 61.4 °F 57.8 °F 29.90 in WSW 0.8 mph 3.5 mph 88 % 0.00 in 0.0 W/m2 CLR
04:53 61.4 °F 57.8 °F 29.90 in WSW 0.7 mph 9.2 mph 88 % 0.00 in 0.0 W/m2 CLR
04:58 61.3 °F 57.7 °F 29.90 in West 2.4 mph 3.5 mph 88 % 0.00 in 0.0 W/m2 CLR
05:03 61.2 °F 57.6 °F 29.90 in SW 2.3 mph 5.8 mph 88 % 0.00 in 0.0 W/m2 CLR
05:08 61.2 °F 57.6 °F 29.90 in SW 0.7 mph 4.6 mph 88 % 0.00 in 0.0 W/m2 CLR
05:13 61.1 °F 57.5 °F 29.90 in SSW 0.4 mph 3.5 mph 88 % 0.00 in 0.0 W/m2 CLR
05:18 61.0 °F 57.4 °F 29.91 in SW 0.3 mph 1.2 mph 88 % 0.00 in 0.0 W/m2 CLR
05:23 61.0 °F 57.4 °F 29.91 in WSW 0.1 mph 1.2 mph 88 % 0.00 in 0.0 W/m2 CLR
05:28 61.0 °F 57.7 °F 29.91 in WSW 0.1 mph 3.5 mph 89 % 0.00 in 0.0 W/m2 CLR
05:34 60.9 °F 57.6 °F 29.91 in WSW 0.1 mph 2.3 mph 89 % 0.00 in 0.0 W/m2 CLR
05:39 60.9 °F 57.6 °F 29.91 in SW 1.4 mph 5.0 mph 89 % 0.00 in 0.0 W/m2 CLR
05:44 60.9 °F 57.6 °F 29.91 in SW 2.6 mph 4.6 mph 89 % 0.00 in 0.0 W/m2 CLR
05:49 61.0 °F 57.7 °F 29.92 in WSW 1.7 mph 5.0 mph 89 % 0.00 in 0.0 W/m2 CLR
05:54 61.0 °F 57.7 °F 29.92 in Calm   3.5 mph 89 % 0.00 in 0.0 W/m2 CLR
05:59 61.0 °F 57.7 °F 29.92 in SW 1.0 mph 3.5 mph 89 % 0.00 in 0.0 W/m2 CLR
06:04 61.1 °F 57.8 °F 29.92 in WSW 1.4 mph 5.8 mph 89 % 0.00 in 0.0 W/m2 CLR
06:09 61.1 °F 57.8 °F 29.92 in West 3.4 mph 6.9 mph 89 % 0.00 in 0.0 W/m2 CLR
06:14 61.0 °F 57.7 °F 29.92 in West 0.6 mph 3.5 mph 89 % 0.00 in 0.0 W/m2 CLR
06:19 61.0 °F 57.7 °F 29.92 in West 0.5 mph 3.0 mph 89 % 0.00 in 0.0 W/m2 CLR
06:24 61.1 °F 57.8 °F 29.92 in WNW 0.3 mph 2.3 mph 89 % 0.00 in 0.0 W/m2 CLR
06:29 61.1 °F 57.8 °F 29.92 in West 0.3 mph 2.3 mph 89 % 0.00 in 0.0 W/m2 CLR
06:34 61.2 °F 57.9 °F 29.93 in WNW 1.0 mph 3.5 mph 89 % 0.00 in 0.0 W/m2 CLR
06:39 61.3 °F 57.7 °F 29.93 in West 0.2 mph 1.2 mph 88 % 0.00 in 0.0 W/m2 CLR
06:44 61.3 °F 57.7 °F 29.93 in WSW 2.0 mph 4.6 mph 88 % 0.00 in 5.0 W/m2 CLR
06:49 61.4 °F 57.8 °F 29.93 in West 0.1 mph 1.2 mph 88 % 0.00 in 7.0 W/m2 CLR
06:54 61.3 °F 57.7 °F 29.93 in Calm     88 % 0.00 in 14.0 W/m2 CLR
06:56 61.3 °F 57.7 °F 29.93 in Calm   2.3 mph 88 % 0.00 in 19.0 W/m2 CLR
07:06 61.2 °F 57.9 °F 29.94 in Calm     89 % 0.00 in 21.0 W/m2 BKN
07:11 61.2 °F 57.9 °F 29.94 in Calm     89 % 0.00 in 26.0 W/m2 BKN
07:16 61.2 °F 57.9 °F 29.94 in Calm     89 % 0.00 in 30.0 W/m2 BKN
07:21 61.4 °F 58.1 °F 29.94 in Calm     89 % 0.00 in 32.0 W/m2 BKN
07:26 61.5 °F 58.2 °F 29.94 in Calm   1.2 mph 89 % 0.00 in 42.0 W/m2 BKN
07:31 61.6 °F 58.0 °F 29.95 in Calm     88 % 0.00 in 47.0 W/m2 BKN
07:36 61.6 °F 58.0 °F 29.95 in Calm     88 % 0.00 in 42.0 W/m2 BKN
07:41 61.6 °F 58.0 °F 29.95 in WSW 0.6 mph 1.2 mph 88 % 0.00 in 33.0 W/m2 OVC
07:46 61.6 °F 58.0 °F 29.96 in WSW 0.1 mph   88 % 0.00 in 30.0 W/m2 OVC
07:51 61.6 °F 58.0 °F 29.96 in WSW 0.1 mph   88 % 0.00 in 28.0 W/m2 OVC
07:56 61.7 °F 58.1 °F 29.96 in WSW 0.3 mph 3.0 mph 88 % 0.00 in 33.0 W/m2 OVC
08:01 61.8 °F 58.2 °F 29.96 in Calm   1.2 mph 88 % 0.00 in 46.0 W/m2 OVC
08:06 61.9 °F 58.3 °F 29.97 in NNE 1.0 mph 6.9 mph 88 % 0.00 in 32.0 W/m2 OVC
08:11 61.3 °F 57.1 °F 29.97 in NNW 2.2 mph 10.4 mph 86 % 0.00 in 79.0 W/m2 OVC
08:16 61.5 °F 56.3 °F 29.97 in North 2.5 mph 5.8 mph 83 % 0.00 in 113.0 W/m2 BKN
08:22 61.9 °F 55.7 °F 29.98 in NNE 1.6 mph 5.0 mph 80 % 0.00 in 104.0 W/m2 BKN
08:26 62.0 °F 54.7 °F 29.98 in North 3.6 mph 8.1 mph 77 % 0.00 in 76.0 W/m2 OVC
08:31 61.9 °F 53.5 °F 29.97 in NNW 1.6 mph 3.5 mph 74 % 0.00 in 72.0 W/m2 OVC
08:36 62.0 °F 53.6 °F 29.98 in NNW 2.2 mph 8.1 mph 74 % 0.00 in 91.0 W/m2 OVC
08:41 62.0 °F 53.2 °F 29.98 in NW 3.8 mph 11.5 mph 73 % 0.00 in 120.0 W/m2 BKN
08:47 61.8 °F 52.7 °F 29.98 in NW 3.9 mph 8.1 mph 72 % 0.00 in 167.0 W/m2 BKN
08:52 61.8 °F 51.5 °F 29.99 in NNW 4.4 mph 5.0 mph 69 % 0.00 in 179.0 W/m2 SCT
08:57 62.0 °F 50.1 °F 29.99 in NNW 4.3 mph 8.1 mph 65 % 0.00 in 139.0 W/m2 BKN
09:02 61.8 °F 48.6 °F 29.99 in NNW 5.8 mph 8.1 mph 62 % 0.00 in 132.0 W/m2 BKN
09:07 61.7 °F 47.2 °F 29.99 in NNW 4.8 mph 4.8 mph 59 % 0.00 in 100.0 W/m2 OVC
09:12 61.6 °F 46.7 °F 29.99 in NNW 6.6 mph 15.0 mph 58 % 0.00 in 86.0 W/m2 OVC
09:17 61.4 °F 46.5 °F 29.99 in NW 3.0 mph 5.8 mph 58 % 0.00 in 105.0 W/m2 OVC
09:22 61.0 °F 46.6 °F 29.99 in NNW 2.1 mph 3.5 mph 59 % 0.00 in 163.0 W/m2 BKN
09:27 61.2 °F 46.8 °F 29.99 in NNW 6.7 mph 9.2 mph 59 % 0.00 in 207.0 W/m2 BKN
09:32 61.8 °F 46.4 °F 30.00 in NNW 0.3 mph 10.4 mph 57 % 0.00 in 223.0 W/m2 BKN
09:37 62.1 °F 46.7 °F 30.00 in NNW 2.3 mph 8.1 mph 57 % 0.00 in 246.0 W/m2 BKN
09:42 62.4 °F 47.4 °F 30.00 in NNW 2.2 mph 4.6 mph 58 % 0.00 in 281.0 W/m2 SCT
09:47 62.8 °F 46.4 °F 30.00 in NNW 1.6 mph 3.5 mph 55 % 0.00 in 262.0 W/m2 SCT
09:52 62.8 °F 46.9 °F 30.00 in North 0.7 mph 4.0 mph 56 % 0.00 in 279.0 W/m2 SCT
09:57 62.8 °F 47.3 °F 30.00 in NNW 0.6 mph 4.6 mph 57 % 0.00 in 269.0 W/m2 BKN
10:02 63.2 °F 47.7 °F 30.00 in NNW 3.2 mph 4.6 mph 57 % 0.00 in 341.0 W/m2 SCT
10:12 64.0 °F 48.0 °F 30.01 in North 3.2 mph 8.1 mph 56 % 0.00 in 385.0 W/m2 SCT
10:17 64.2 °F 47.7 °F 30.01 in NW 3.0 mph 4.0 mph 55 % 0.00 in 394.0 W/m2 FEW
10:22 64.8 °F 47.8 °F 30.01 in NNW 1.8 mph 4.6 mph 54 % 0.00 in 480.0 W/m2 FEW
10:27 65.6 °F 46.5 °F 30.01 in NNW 4.6 mph 6.9 mph 50 % 0.00 in 603.0 W/m2 CLR
10:32 65.7 °F 46.5 °F 30.01 in NNW 5.3 mph 8.1 mph 50 % 0.00 in 438.0 W/m2 CLR
10:37 65.5 °F 45.8 °F 30.01 in North 2.5 mph 6.9 mph 49 % 0.00 in 587.0 W/m2 CLR
10:42 65.7 °F 46.0 °F 30.01 in North 5.9 mph 10.4 mph 49 % 0.00 in 492.0 W/m2 FEW
10:47 65.6 °F 44.8 °F 30.01 in NNW 4.6 mph 8.1 mph 47 % 0.00 in 401.0 W/m2 SCT
10:52 65.5 °F 44.7 °F 30.01 in NNW 3.6 mph 11.5 mph 47 % 0.00 in 343.0 W/m2 SCT
10:57 65.2 °F 45.0 °F 30.01 in NNW 3.2 mph 8.1 mph 48 % 0.00 in 320.0 W/m2 BKN
11:02 65.1 °F 45.5 °F 30.02 in North 3.6 mph 5.8 mph 49 % 0.00 in 292.0 W/m2 BKN
11:07 65.0 °F 45.9 °F 30.02 in NNW 1.7 mph 4.6 mph 50 % 0.00 in 250.0 W/m2 BKN
11:12 65.1 °F 44.9 °F 30.02 in NNW 3.7 mph 9.2 mph 48 % 0.00 in 229.0 W/m2 BKN
11:22 64.8 °F 44.1 °F 30.02 in NNW 6.3 mph 11.5 mph 47 % 0.00 in 202.0 W/m2 OVC
11:27 64.6 °F 43.9 °F 30.02 in NNW 3.6 mph 8.1 mph 47 % 0.00 in 202.0 W/m2 OVC
11:32 64.6 °F 43.9 °F 30.02 in NNW 6.4 mph 10.4 mph 47 % 0.00 in 209.0 W/m2 OVC
11:37 64.5 °F 44.4 °F 30.02 in NNE 2.6 mph 8.1 mph 48 % 0.00 in 243.0 W/m2 BKN
11:42 64.3 °F 43.6 °F 30.03 in NW 1.2 mph 5.8 mph 47 % 0.00 in 250.0 W/m2 BKN
11:47 64.5 °F 43.3 °F 30.02 in NNW 0.5 mph 5.0 mph 46 % 0.00 in 285.0 W/m2 BKN
11:52 64.8 °F 43.5 °F 30.03 in NW 2.1 mph 8.1 mph 46 % 0.00 in 313.0 W/m2 BKN
11:57 65.1 °F 43.8 °F 30.02 in NW 6.2 mph 10.4 mph 46 % 0.00 in 336.0 W/m2 BKN
12:02 65.2 °F 43.9 °F 30.02 in North 2.6 mph 10.4 mph 46 % 0.00 in 378.0 W/m2 BKN
12:07 65.0 °F 42.5 °F 30.02 in North 7.2 mph 11.5 mph 44 % 0.00 in 413.0 W/m2 SCT
12:12 65.4 °F 43.5 °F 30.02 in NW 1.2 mph 4.6 mph 45 % 0.00 in 415.0 W/m2 SCT
12:17 65.5 °F 43.0 °F 30.02 in NNW 0.9 mph 8.1 mph 44 % 0.00 in 457.0 W/m2 SCT
12:22 65.9 °F 43.4 °F 30.02 in NNW 3.3 mph 10.0 mph 44 % 0.00 in 610.0 W/m2 FEW
12:27 66.8 °F 42.3 °F 30.02 in NW 5.9 mph 8.1 mph 41 % 0.00 in 601.0 W/m2 FEW
12:32 67.3 °F 45.2 °F 30.02 in NNW 2.7 mph 8.0 mph 45 % 0.00 in 710.0 W/m2 FEW
12:37 67.6 °F 43.7 °F 30.02 in NNW 4.3 mph 12.7 mph 42 % 0.00 in 555.0 W/m2 FEW
12:42 67.3 °F 41.5 °F 30.02 in WNW 12.4 mph 18.4 mph 39 % 0.00 in 731.0 W/m2 CLR
12:47 67.9 °F 42.7 °F 30.02 in NW 7.5 mph 10.4 mph 40 % 0.00 in 731.0 W/m2 CLR
12:52 68.1 °F 41.5 °F 30.01 in NW 5.6 mph 8.1 mph 38 % 0.00 in 552.0 W/m2 SCT
12:57 68.3 °F 41.7 °F 30.01 in NNE 4.0 mph 10.4 mph 38 % 0.00 in 763.0 W/m2 CLR
13:02 68.6 °F 41.3 °F 30.01 in NNW 7.5 mph 12.7 mph 37 % 0.00 in 884.0 W/m2 CLR
13:07 69.0 °F 40.2 °F 30.02 in NNW 10.7 mph 15.0 mph 35 % 0.00 in 659.0 W/m2 CLR
13:12 68.1 °F 40.1 °F 30.02 in NW 9.9 mph 13.8 mph 36 % 0.00 in 624.0 W/m2 FEW
13:17 68.3 °F 40.3 °F 30.02 in NNW 8.4 mph 12.7 mph 36 % 0.00 in 452.0 W/m2 FEW
13:22 67.5 °F 40.3 °F 30.01 in North 5.3 mph 11.5 mph 37 % 0.00 in 420.0 W/m2 SCT
13:27 67.6 °F 40.4 °F 30.02 in NW 9.0 mph 11.5 mph 37 % 0.00 in 475.0 W/m2 SCT
13:32 68.3 °F 39.6 °F 30.01 in WNW 8.1 mph 11.5 mph 35 % 0.00 in 615.0 W/m2 FEW
13:37 68.7 °F 40.7 °F 30.01 in NNW 5.8 mph 11.5 mph 36 % 0.00 in 564.0 W/m2 FEW
13:42 69.2 °F 38.1 °F 30.02 in NW 8.8 mph 12.7 mph 32 % 0.00 in 323.0 W/m2 CLR
13:47 68.5 °F 39.0 °F 30.02 in North 3.4 mph 4.0 mph 34 % 0.00 in 366.0 W/m2 BKN
13:52 67.9 °F 38.5 °F 30.01 in WNW 6.0 mph 6.9 mph 34 % 0.00 in 380.0 W/m2 BKN
13:53 67.9 °F 37.7 °F 30.01 in WNW 7.0 mph 11.5 mph 33 % 0.00 in 390.0 W/m2 BKN
13:58 68.0 °F 38.6 °F 30.01 in NW 1.8 mph 4.6 mph 34 % 0.00 in 448.0 W/m2 SCT
14:03 68.9 °F 37.8 °F 30.01 in NW 6.1 mph 10.4 mph 32 % 0.00 in 775.0 W/m2 CLR
14:08 69.1 °F 38.0 °F 30.02 in WNW 8.1 mph 12.7 mph 32 % 0.00 in 974.0 W/m2 CLR
14:13 69.9 °F 37.0 °F 30.01 in NW 9.9 mph 16.1 mph 30 % 0.00 in 898.0 W/m2 CLR
14:18 70.2 °F 38.9 °F 30.01 in NNW 10.0 mph 12.7 mph 32 % 0.00 in 925.0 W/m2 CLR
14:23 70.4 °F 36.6 °F 30.01 in West 7.1 mph 11.5 mph 29 % 0.00 in 749.0 W/m2 CLR
14:33 71.1 °F 38.1 °F 30.01 in West 9.9 mph 16.1 mph 30 % 0.00 in 990.0 W/m2 CLR
14:38 71.2 °F 37.3 °F 30.01 in WNW 9.2 mph 15.0 mph 29 % 0.00 in 807.0 W/m2 CLR
14:43 70.5 °F 34.9 °F 30.01 in WNW 7.4 mph 12.0 mph 27 % 0.00 in 636.0 W/m2 CLR
14:48 70.5 °F 36.7 °F 30.00 in NW 7.3 mph 10.4 mph 29 % 0.00 in 376.0 W/m2 SCT
14:53 69.6 °F 37.6 °F 30.01 in NW 8.9 mph 11.5 mph 31 % 0.00 in 454.0 W/m2 SCT
14:58 70.0 °F 35.4 °F 30.00 in NNW 7.2 mph 11.5 mph 28 % 0.00 in 441.0 W/m2 SCT
15:03 70.5 °F 37.6 °F 30.00 in NW 4.1 mph 5.8 mph 30 % 0.00 in 610.0 W/m2 SCT
15:08 70.0 °F 36.3 °F 30.00 in NW 7.2 mph 13.8 mph 29 % 0.00 in 385.0 W/m2 SCT
15:13 70.2 °F 35.5 °F 30.00 in West 8.0 mph 11.5 mph 28 % 0.00 in 415.0 W/m2 SCT
15:14 70.1 °F 35.5 °F 30.00 in WNW 8.0 mph 10.4 mph 28 % 0.00 in 483.0 W/m2 SCT
15:19 70.6 °F 36.8 °F 30.00 in NW 9.9 mph 11.5 mph 29 % 0.00 in 570.0 W/m2 FEW
15:24 70.7 °F 35.1 °F 30.00 in WSW 4.5 mph 6.9 mph 27 % 0.00 in 831.0 W/m2 CLR
15:29 71.0 °F 35.3 °F 30.00 in West 9.7 mph 13.8 mph 27 % 0.00 in 666.0 W/m2 CLR
15:34 71.4 °F 36.6 °F 30.00 in WNW 5.8 mph 10.4 mph 28 % 0.00 in 468.0 W/m2 FEW
15:39 71.2 °F 35.5 °F 30.00 in WNW 6.0 mph 10.4 mph 27 % 0.00 in 758.0 W/m2 CLR
15:44 71.5 °F 35.7 °F 30.00 in WSW 8.1 mph 13.8 mph 27 % 0.00 in 740.0 W/m2 CLR
15:49 71.2 °F 35.5 °F 30.00 in West 7.6 mph 11.5 mph 27 % 0.00 in 726.0 W/m2 CLR
15:54 71.0 °F 36.2 °F 30.00 in West 3.9 mph 6.9 mph 28 % 0.00 in 693.0 W/m2 CLR
15:59 71.2 °F 36.4 °F 30.00 in West 2.7 mph 6.9 mph 28 % 0.00 in 675.0 W/m2 CLR
16:04 71.8 °F 34.1 °F 30.00 in WNW 9.6 mph 15.0 mph 25 % 0.00 in 663.0 W/m2 CLR
16:09 71.4 °F 33.7 °F 30.00 in WNW 9.7 mph 12.7 mph 25 % 0.00 in 647.0 W/m2 CLR
16:14 71.2 °F 34.5 °F 30.00 in NNW 5.1 mph 10.4 mph 26 % 0.00 in 631.0 W/m2 CLR
16:19 71.0 °F 35.3 °F 30.00 in NW 4.0 mph 8.1 mph 27 % 0.00 in 615.0 W/m2 CLR
16:24 72.0 °F 36.2 °F 30.00 in NW 4.6 mph 8.0 mph 27 % 0.00 in 603.0 W/m2 CLR
16:29 71.8 °F 35.0 °F 30.00 in NW 8.4 mph 13.8 mph 26 % 0.00 in 587.0 W/m2 CLR
16:34 71.7 °F 35.0 °F 30.00 in WNW 6.5 mph 10.4 mph 26 % 0.00 in 568.0 W/m2 CLR
16:39 71.7 °F 35.0 °F 30.00 in WNW 5.6 mph 9.2 mph 26 % 0.00 in 550.0 W/m2 CLR
16:44 71.9 °F 36.1 °F 30.00 in WNW 8.6 mph 11.5 mph 27 % 0.00 in 536.0 W/m2 CLR
16:49 71.9 °F 35.1 °F 30.00 in NW 7.7 mph 11.5 mph 26 % 0.00 in 520.0 W/m2 CLR
16:54 71.5 °F 35.7 °F 30.00 in NNW 4.4 mph 8.1 mph 27 % 0.00 in 501.0 W/m2 CLR
16:59 71.6 °F 36.8 °F 30.00 in NW 1.7 mph 4.6 mph 28 % 0.00 in 487.0 W/m2 CLR
17:04 72.1 °F 36.3 °F 30.00 in NW 6.2 mph 11.5 mph 27 % 0.00 in 471.0 W/m2 CLR
17:09 72.0 °F 35.2 °F 30.00 in West 6.1 mph 9.2 mph 26 % 0.00 in 454.0 W/m2 CLR
17:14 71.7 °F 35.0 °F 30.00 in WSW 5.3 mph 10.4 mph 26 % 0.00 in 436.0 W/m2 CLR
17:19 71.7 °F 35.9 °F 30.00 in North 5.2 mph 11.5 mph 27 % 0.00 in 422.0 W/m2 CLR
17:24 71.8 °F 35.0 °F 30.00 in North 7.1 mph 11.0 mph 26 % 0.00 in 404.0 W/m2 CLR
17:29 71.5 °F 36.7 °F 30.00 in North 8.3 mph 13.8 mph 28 % 0.00 in 385.0 W/m2 CLR
17:34 71.3 °F 34.6 °F 30.00 in NW 8.4 mph 12.7 mph 26 % 0.00 in 367.0 W/m2 CLR
17:39 71.5 °F 33.8 °F 30.00 in NW 4.4 mph 11.5 mph 25 % 0.00 in 345.0 W/m2 CLR
17:44 71.8 °F 35.0 °F 30.00 in NW 8.3 mph 13.0 mph 26 % 0.00 in 297.0 W/m2 CLR
17:49 71.4 °F 34.7 °F 30.00 in NW 5.6 mph 9.2 mph 26 % 0.00 in 297.0 W/m2 CLR
17:54 71.2 °F 34.5 °F 30.01 in West 8.0 mph 11.5 mph 26 % 0.00 in 144.0 W/m2 SCT
17:59 70.8 °F 34.2 °F 30.01 in North 4.8 mph 11.5 mph 26 % 0.00 in 127.0 W/m2 SCT
18:04 70.2 °F 34.6 °F 30.01 in NNW 4.6 mph 9.2 mph 27 % 0.00 in 102.0 W/m2 SCT
18:09 69.6 °F 35.0 °F 30.01 in North 3.4 mph 5.0 mph 28 % 0.00 in 95.0 W/m2 BKN
18:10 69.6 °F 35.0 °F 30.01 in NNW 4.5 mph 8.1 mph 28 % 0.00 in 95.0 W/m2 BKN
18:15 69.5 °F 34.0 °F 30.01 in NW 10.2 mph 12.7 mph 27 % 0.00 in 149.0 W/m2 SCT
18:20 69.9 °F 34.4 °F 30.02 in NW 5.2 mph 10.4 mph 27 % 0.00 in 225.0 W/m2 CLR
18:25 70.3 °F 34.7 °F 30.02 in NW 6.0 mph 10.4 mph 27 % 0.00 in 141.0 W/m2 CLR
18:30 70.1 °F 35.5 °F 30.02 in North 4.7 mph 8.1 mph 28 % 0.00 in 98.0 W/m2 SCT
18:35 69.4 °F 34.9 °F 30.02 in North 3.5 mph 5.0 mph 28 % 0.00 in 76.0 W/m2 BKN
18:40 68.8 °F 35.2 °F 30.02 in NNW 5.0 mph 9.2 mph 29 % 0.00 in 69.0 W/m2 BKN
18:45 68.5 °F 35.0 °F 30.03 in NNW 4.0 mph 11.0 mph 29 % 0.00 in 60.0 W/m2 BKN
18:50 68.3 °F 34.8 °F 30.02 in NNW 5.0 mph 11.5 mph 29 % 0.00 in 70.0 W/m2 SCT
18:55 68.2 °F 34.7 °F 30.03 in NNW 1.1 mph 3.5 mph 29 % 0.00 in 67.0 W/m2 SCT
19:00 68.2 °F 35.6 °F 30.03 in NNW 2.8 mph 4.6 mph 30 % 0.00 in 62.0 W/m2 FEW
19:05 68.0 °F 35.4 °F 30.04 in NNW 4.4 mph 9.2 mph 30 % 0.00 in 47.0 W/m2 SCT
19:10 67.7 °F 36.0 °F 30.04 in NNE 4.2 mph 9.2 mph 31 % 0.00 in 47.0 W/m2 FEW
19:15 67.5 °F 35.8 °F 30.05 in North 3.0 mph 5.8 mph 31 % 0.00 in 33.0 W/m2 SCT
19:20 67.2 °F 35.5 °F 30.05 in North 4.8 mph 8.1 mph 31 % 0.00 in 23.0 W/m2 SCT
19:30 66.4 °F 34.8 °F 30.05 in NNE 4.7 mph 11.5 mph 31 % 0.00 in 14.0 W/m2 SCT
19:35 66.2 °F 34.7 °F 30.06 in North 6.6 mph 11.0 mph 31 % 0.00 in 9.0 W/m2 SCT
19:40 66.0 °F 34.5 °F 30.06 in North 4.6 mph 9.2 mph 31 % 0.00 in 5.0 W/m2 BKN
19:45 65.7 °F 35.0 °F 30.06 in North 1.6 mph 5.8 mph 32 % 0.00 in 5.0 W/m2 BKN
19:50 65.4 °F 34.8 °F 30.07 in North 0.6 mph 2.3 mph 32 % 0.00 in 0.0 W/m2 BKN
19:55 65.2 °F 35.4 °F 30.07 in NNE 2.3 mph 5.8 mph 33 % 0.00 in 0.0 W/m2 BKN
20:00 65.0 °F 35.2 °F 30.07 in NNE 5.3 mph 10.4 mph 33 % 0.00 in 0.0 W/m2 BKN
20:05 64.9 °F 35.1 °F 30.07 in NNE 2.6 mph 5.8 mph 33 % 0.00 in 0.0 W/m2 BKN
20:10 64.7 °F 34.9 °F 30.07 in NNE 4.4 mph 8.1 mph 33 % 0.00 in 0.0 W/m2 BKN
20:15 64.5 °F 34.7 °F 30.08 in NNE 3.7 mph 6.9 mph 33 % 0.00 in 0.0 W/m2 BKN
20:20 64.2 °F 35.2 °F 30.08 in NNE 3.9 mph 8.0 mph 34 % 0.00 in 0.0 W/m2 BKN
20:25 63.8 °F 35.6 °F 30.08 in NNE 3.1 mph 3.5 mph 35 % 0.00 in 0.0 W/m2 BKN
20:30 63.5 °F 35.3 °F 30.09 in NNE 3.1 mph 5.0 mph 35 % 0.00 in 0.0 W/m2 BKN
20:36 63.3 °F 35.2 °F 30.09 in North 3.4 mph 4.6 mph 35 % 0.00 in 0.0 W/m2 BKN
20:41 63.1 °F 35.0 °F 30.09 in NNE 1.7 mph 4.6 mph 35 % 0.00 in 0.0 W/m2 BKN
20:46 62.9 °F 35.5 °F 30.09 in NNE 1.9 mph 8.1 mph 36 % 0.00 in 0.0 W/m2 BKN
20:51 62.8 °F 35.4 °F 30.10 in NNE 1.3 mph 4.6 mph 36 % 0.00 in 0.0 W/m2 BKN
20:56 62.5 °F 35.2 °F 30.10 in NNE 3.8 mph 6.9 mph 36 % 0.00 in 0.0 W/m2 BKN
21:01 62.3 °F 35.0 °F 30.10 in NNE 3.3 mph 4.6 mph 36 % 0.00 in 0.0 W/m2 BKN
21:06 62.0 °F 35.4 °F 30.11 in NNE 2.2 mph 4.0 mph 37 % 0.00 in 0.0 W/m2 BKN
21:16 61.5 °F 35.0 °F 30.11 in NNE 1.8 mph 6.9 mph 37 % 0.00 in 0.0 W/m2 BKN
21:21 61.4 °F 35.5 °F 30.11 in Calm     38 % 0.00 in 0.0 W/m2 BKN
21:26 61.1 °F 35.3 °F 30.12 in North 0.8 mph 3.5 mph 38 % 0.00 in 0.0 W/m2 BKN
21:31 60.7 °F 35.6 °F 30.12 in Calm     39 % 0.00 in 0.0 W/m2 BKN
21:36 60.5 °F 35.4 °F 30.12 in Calm     39 % 0.00 in 0.0 W/m2 BKN
21:41 60.4 °F 35.3 °F 30.13 in NNW 2.2 mph 5.8 mph 39 % 0.00 in 0.0 W/m2 BKN
21:46 60.4 °F 35.3 °F 30.13 in North 1.4 mph 4.6 mph 39 % 0.00 in 0.0 W/m2 BKN
21:51 60.2 °F 35.8 °F 30.13 in North 0.2 mph 2.3 mph 40 % 0.00 in 0.0 W/m2 BKN
21:56 60.1 °F 35.7 °F 30.13 in North 0.2 mph 2.0 mph 40 % 0.00 in 0.0 W/m2 BKN
22:01 60.1 °F 35.7 °F 30.14 in Calm     40 % 0.00 in 0.0 W/m2 BKN
22:06 60.1 °F 35.7 °F 30.14 in Calm     40 % 0.00 in 0.0 W/m2 BKN
22:11 59.8 °F 35.4 °F 30.14 in Calm     40 % 0.00 in 0.0 W/m2 BKN
22:16 59.5 °F 35.8 °F 30.14 in Calm     41 % 0.00 in 0.0 W/m2 BKN
22:21 59.0 °F 36.5 °F 30.14 in Calm     43 % 0.00 in 0.0 W/m2 BKN
22:26 58.5 °F 36.6 °F 30.15 in Calm     44 % 0.00 in 0.0 W/m2 BKN
22:31 58.2 °F 36.9 °F 30.15 in Calm     45 % 0.00 in 0.0 W/m2 BKN
22:36 57.9 °F 36.1 °F 30.15 in Calm     44 % 0.00 in 0.0 W/m2 BKN
22:41 57.9 °F 36.1 °F 30.15 in Calm     44 % 0.00 in 0.0 W/m2 BKN
22:46 58.2 °F 35.8 °F 30.16 in Calm   1.2 mph 43 % 0.00 in 0.0 W/m2 BKN
22:51 58.3 °F 35.9 °F 30.16 in Calm     43 % 0.00 in 0.0 W/m2 BKN
22:56 58.0 °F 36.8 °F 30.16 in Calm     45 % 0.00 in 0.0 W/m2 BKN
23:01 57.6 °F 36.4 °F 30.16 in Calm     45 % 0.00 in 0.0 W/m2 BKN
23:06 57.8 °F 36.0 °F 30.16 in Calm     44 % 0.00 in 0.0 W/m2 BKN
23:11 57.9 °F 36.7 °F 30.16 in Calm     45 % 0.00 in 0.0 W/m2 BKN
23:16 58.2 °F 36.9 °F 30.16 in NNE 3.2 mph 8.0 mph 45 % 0.00 in 0.0 W/m2 BKN
23:21 58.2 °F 36.9 °F 30.16 in NE 2.7 mph 8.1 mph 45 % 0.00 in 0.0 W/m2 BKN
23:26 58.2 °F 36.9 °F 30.17 in NNE 3.2 mph 6.0 mph 45 % 0.00 in 0.0 W/m2 BKN
23:31 57.9 °F 37.2 °F 30.17 in NNE 0.7 mph 4.0 mph 46 % 0.00 in 0.0 W/m2 BKN
23:36 57.6 °F 37.0 °F 30.17 in NE 2.1 mph 5.8 mph 46 % 0.00 in 0.0 W/m2 BKN
23:41 57.5 °F 37.4 °F 30.17 in NNE 2.0 mph 3.5 mph 47 % 0.00 in 0.0 W/m2 BKN
23:46 57.4 °F 37.3 °F 30.17 in NNE 2.9 mph 4.6 mph 47 % 0.00 in 0.0 W/m2 BKN
23:51 57.3 °F 37.2 °F 30.18 in Calm     47 % 0.00 in 0.0 W/m2 BKN
23:56 57.0 °F 37.5 °F 30.18 in Calm   1.2 mph 48 % 0.00 in 0.0 W/m2 BKN
Air Products Campus Weather
Compliments of Weather Underground - 3.25 mb